Bond, Oklahoma
Current Conditions -  °F | °C
As of 3:53 PM on Thursday 18 Dec 2014 (Local Time) from KMKO Reporting Station
Haze Haze  
Wind Chill: 41°   Ceiling: 600
Heat Index: 41°   Visibility: 5mi
Dew Point: 38°   Wind: 3mph
Humidity: 89%   Direction: 70°ENE
Pressure: 30.17"   Gusts: NA
Location:  35.4498°N, 95.4869°W
Report Text: KMKO 182153Z AUTO 07003KT 5SM BR OVC006 05/03 A3017 RMK AO2 SLP220 T00500033
Loading
Personal Weather Stations






























Interactive Weather Map New forecast layout! Learn more

10-Day Weather Forecast

Advertisements
Track Severe Weather on mobile